Time;durP1;ratioP1;P1;durP2;ratioP2;P2;SDS_P1;SDS_P2;PMS_P1;PMS_P2;Temp;Humidity;BMP_temperature;BMP_pressure;BME280_temperature;BME280_humidity;BME280_pressure;Samples;Min_cycle;Max_cycle;Signal;HPM_P1;HPM_P2
2023/06/24 00:01:09;;;;;;;9.32;6.10;;;;;;;20.43;60.29;99878.31;4396789;32;20175;-90
2023/06/24 00:03:37;;;;;;;7.53;5.90;;;;;;;20.43;60.29;99870.38;4396837;32;20146;-90
2023/06/24 00:06:03;;;;;;;9.07;5.72;;;;;;;20.58;60.30;99876.34;4397426;32;20077;-91
2023/06/24 00:08:33;;;;;;;8.65;5.68;;;;;;;20.64;60.30;99875.94;4397153;32;20082;-90
2023/06/24 00:10:59;;;;;;;8.20;5.70;;;;;;;20.46;60.29;99870.16;4397481;32;20109;-91
2023/06/24 00:13:24;;;;;;;9.52;6.70;;;;;;;20.32;60.29;99872.03;4384345;32;20181;-90
2023/06/24 00:15:50;;;;;;;8.68;6.40;;;;;;;20.30;60.28;99869.50;4397967;32;20374;-90
2023/06/24 00:18:15;;;;;;;12.23;6.28;;;;;;;20.38;60.28;99866.34;4401077;32;20151;-90
2023/06/24 00:20:43;;;;;;;9.55;6.75;;;;;;;20.35;60.29;99855.97;4385984;32;20105;-90
2023/06/24 00:23:08;;;;;;;10.40;7.30;;;;;;;20.31;60.28;99850.03;4399113;32;20097;-91
2023/06/24 00:25:34;;;;;;;14.25;7.15;;;;;;;20.34;60.29;99841.87;4398175;32;23458;-89
2023/06/24 00:27:59;;;;;;;8.63;6.62;;;;;;;20.44;60.29;99848.25;4398543;32;20173;-91
2023/06/24 00:30:26;;;;;;;8.43;6.53;;;;;;;20.35;60.29;99848.91;4386198;32;20164;-92
2023/06/24 00:32:51;;;;;;;10.00;7.28;;;;;;;20.32;60.28;99851.72;4411254;32;20106;-91
2023/06/24 00:35:17;;;;;;;10.93;6.65;;;;;;;20.33;60.29;99850.78;4425437;32;20119;-91
2023/06/24 00:37:46;;;;;;;10.93;7.05;;;;;;;20.34;60.28;99849.81;4390868;32;20109;-92
2023/06/24 00:40:14;;;;;;;12.65;7.15;;;;;;;20.38;60.28;99853.97;4399061;32;20109;-91
2023/06/24 00:42:41;;;;;;;10.48;7.40;;;;;;;20.34;60.29;99856.91;4386612;32;20159;-90
2023/06/24 00:45:07;;;;;;;14.27;7.72;;;;;;;20.31;60.28;99843.91;4411437;32;20219;-90
2023/06/24 00:47:33;;;;;;;11.02;7.68;;;;;;;20.33;60.28;99832.25;4398379;32;20438;-92
2023/06/24 00:49:58;;;;;;;12.65;8.10;;;;;;;20.40;60.29;99830.94;4398680;32;20167;-90
2023/06/24 00:52:24;;;;;;;12.20;7.00;;;;;;;20.24;60.28;99833.78;4387763;32;20351;-91
2023/06/24 00:54:49;;;;;;;10.48;7.28;;;;;;;20.14;60.27;99826.63;4390080;32;20193;-91
2023/06/24 00:57:14;;;;;;;9.75;6.72;;;;;;;20.03;60.27;99837.91;4393922;32;20093;-91
2023/06/24 00:59:42;;;;;;;12.02;7.82;;;;;;;20.10;60.28;99839.16;4399120;32;20140;-92
2023/06/24 01:02:08;;;;;;;11.18;7.78;;;;;;;20.13;60.27;99828.41;4400376;32;20070;-91
2023/06/24 01:04:34;;;;;;;11.75;6.90;;;;;;;20.08;60.27;99822.59;4386446;32;20085;-90
2023/06/24 01:07:00;;;;;;;12.52;7.03;;;;;;;20.04;60.27;99823.75;4397970;32;20124;-90
2023/06/24 01:09:25;;;;;;;10.35;7.32;;;;;;;20.14;60.27;99806.31;4397958;32;20145;-92
2023/06/24 01:11:51;;;;;;;10.45;6.70;;;;;;;19.99;60.27;99806.53;4385249;32;20122;-91
2023/06/24 01:14:20;;;;;;;13.20;6.37;;;;;;;20.19;60.27;99806.84;4385593;32;20172;-93
2023/06/24 01:17:08;;;;;;;9.93;6.37;;;;;;;20.09;60.27;99810.22;4400489;32;20141;-93
2023/06/24 01:19:45;;;;;;;11.30;6.62;;;;;;;20.18;60.28;99813.06;4385743;32;20460;-90
2023/06/24 01:22:20;;;;;;;10.23;6.65;;;;;;;20.20;60.27;99808.53;4398072;32;20455;-91
2023/06/24 01:24:52;;;;;;;9.98;6.65;;;;;;;20.33;60.29;99807.62;4386181;32;20371;-92
2023/06/24 01:27:53;;;;;;;10.90;6.90;;;;;;;20.13;60.28;99803.78;4424310;32;20115;-93
2023/06/24 01:30:31;;;;;;;10.50;6.03;;;;;;;20.26;60.28;99804.59;4410871;32;20421;-94
2023/06/24 01:32:58;;;;;;;8.57;5.53;;;;;;;20.36;60.28;99808.28;4410667;32;20582;-91
2023/06/24 01:35:28;;;;;;;11.35;5.93;;;;;;;20.21;60.27;99806.72;4387640;32;20118;-92
2023/06/24 01:37:54;;;;;;;8.52;5.40;;;;;;;20.30;60.28;99799.94;4385420;32;20106;-93
2023/06/24 01:40:30;;;;;;;9.63;5.53;;;;;;;20.23;60.27;99795.09;4397859;32;20139;-92
2023/06/24 01:42:57;;;;;;;6.82;4.68;;;;;;;20.22;60.27;99788.09;4397770;32;20101;-91
2023/06/24 01:45:25;;;;;;;8.85;5.53;;;;;;;20.03;60.27;99784.22;4387134;32;20094;-91
2023/06/24 01:48:04;;;;;;;7.57;4.90;;;;;;;20.03;60.27;99781.59;4400240;32;20112;-91
2023/06/24 01:50:31;;;;;;;8.57;5.20;;;;;;;20.10;60.27;99783.69;4386449;32;20117;-92
2023/06/24 01:52:56;;;;;;;10.25;4.97;;;;;;;20.00;60.26;99779.16;4385609;32;20110;-91
2023/06/24 01:55:22;;;;;;;7.32;5.10;;;;;;;20.12;60.28;99775.66;4384627;32;22281;-88
2023/06/24 01:57:48;;;;;;;7.62;5.32;;;;;;;20.00;60.26;99777.38;4397263;32;20117;-92
2023/06/24 02:00:13;;;;;;;11.07;4.85;;;;;;;20.08;60.26;99776.81;4397251;32;20105;-91
2023/06/24 02:02:39;;;;;;;7.65;4.53;;;;;;;20.07;60.27;99762.75;4397323;32;20102;-91
2023/06/24 02:05:05;;;;;;;6.53;4.57;;;;;;;20.15;60.27;99763.06;4384791;32;20474;-91
2023/06/24 02:07:30;;;;;;;6.72;4.50;;;;;;;20.11;60.27;99763.38;4394657;32;98694;-91
2023/06/24 02:09:56;;;;;;;7.10;4.18;;;;;;;20.03;60.27;99758.66;4397964;32;20482;-91
2023/06/24 02:12:21;;;;;;;8.40;4.35;;;;;;;19.96;60.26;99759.19;4399816;32;20229;-93
2023/06/24 02:14:47;;;;;;;6.97;4.82;;;;;;;19.89;60.26;99762.28;4398988;32;20073;-92
2023/06/24 02:17:12;;;;;;;8.02;4.43;;;;;;;19.92;60.26;99780.56;4398473;32;24541;-94
2023/06/24 02:19:38;;;;;;;6.80;4.62;;;;;;;19.82;60.25;99784.78;4386486;32;20146;-91
2023/06/24 02:22:04;;;;;;;8.15;4.60;;;;;;;19.74;60.25;99778.34;4386247;32;20113;-92
2023/06/24 02:24:30;;;;;;;7.28;4.95;;;;;;;19.77;60.25;99778.13;4386289;32;20108;-93
2023/06/24 02:26:58;;;;;;;10.57;5.00;;;;;;;19.66;60.25;99767.47;4386448;32;20090;-93
2023/06/24 02:29:26;;;;;;;8.00;5.05;;;;;;;19.55;60.24;99770.84;4386771;32;20101;-91
2023/06/24 02:31:52;;;;;;;7.82;5.40;;;;;;;19.86;60.26;99769.56;4388327;32;20094;-92
2023/06/24 02:34:18;;;;;;;6.72;4.62;;;;;;;19.77;60.25;99778.13;4398409;32;20141;-90
2023/06/24 02:36:43;;;;;;;6.47;5.07;;;;;;;19.67;60.25;99780.56;4386030;32;20094;-93
2023/06/24 02:39:08;;;;;;;7.57;5.07;;;;;;;19.73;60.26;99784.56;4385890;32;20189;-92
2023/06/24 02:41:34;;;;;;;12.70;5.60;;;;;;;19.70;60.24;99779.50;4392484;32;20116;-92
2023/06/24 02:43:59;;;;;;;13.18;5.85;;;;;;;19.71;60.25;99781.19;4408561;32;20089;-92
2023/06/24 02:46:25;;;;;;;8.15;5.22;;;;;;;19.57;60.25;99784.78;4386556;32;20111;-92
2023/06/24 02:48:51;;;;;;;9.88;4.75;;;;;;;19.62;60.25;99780.03;4386037;32;20098;-92
2023/06/24 02:51:16;;;;;;;7.75;5.07;;;;;;;19.62;60.25;99783.50;4400196;32;20196;-88
2023/06/24 02:53:42;;;;;;;8.45;5.32;;;;;;;19.67;60.25;99791.12;4398153;32;20099;-89
2023/06/24 02:56:08;;;;;;;8.93;5.18;;;;;;;19.56;60.24;99791.84;4424345;32;20066;-87
2023/06/24 02:58:33;;;;;;;9.27;5.15;;;;;;;19.64;60.25;99791.34;4397779;32;20098;-89
2023/06/24 03:00:59;;;;;;;12.32;4.90;;;;;;;19.51;60.24;99798.38;4398009;32;20162;-89
2023/06/24 03:03:25;;;;;;;8.25;4.93;;;;;;;19.66;60.25;99799.16;4397850;32;20077;-88
2023/06/24 03:05:51;;;;;;;8.13;4.80;;;;;;;19.51;60.24;99815.06;4397627;32;20398;-89
2023/06/24 03:08:16;;;;;;;7.47;4.75;;;;;;;19.43;60.23;99820.03;4399146;32;20500;-90
2023/06/24 03:10:42;;;;;;;9.80;5.05;;;;;;;19.45;60.23;99812.00;4385389;32;20135;-90
2023/06/24 03:13:08;;;;;;;7.55;4.97;;;;;;;19.47;60.24;99815.38;4385479;32;20132;-90
2023/06/24 03:15:33;;;;;;;8.00;4.37;;;;;;;19.40;60.24;99806.16;4388526;32;20142;-90
2023/06/24 03:17:59;;;;;;;8.48;4.28;;;;;;;19.29;60.22;99805.09;4399218;32;20113;-94
2023/06/24 03:20:24;;;;;;;7.90;4.25;;;;;;;19.23;60.22;99802.87;4399988;32;20154;-90
2023/06/24 03:22:49;;;;;;;7.07;4.32;;;;;;;19.26;60.23;99799.19;4397356;32;29283;-93
2023/06/24 03:25:15;;;;;;;6.03;4.15;;;;;;;19.25;60.23;99800.12;4398341;32;20126;-94
2023/06/24 03:27:40;;;;;;;7.32;3.67;;;;;;;19.01;60.22;99803.44;4388228;32;20110;-94
2023/06/24 03:30:06;;;;;;;6.47;3.12;;;;;;;19.15;60.22;99815.72;4398114;32;20151;-90
2023/06/24 03:32:34;;;;;;;7.47;3.72;;;;;;;19.31;60.23;99808.47;4385305;32;20077;-92
2023/06/24 03:35:00;;;;;;;7.87;4.10;;;;;;;19.31;60.23;99808.47;4385725;32;20398;-91
2023/06/24 03:37:25;;;;;;;5.22;3.30;;;;;;;19.31;60.22;99812.91;4424299;32;20120;-90
2023/06/24 03:39:51;;;;;;;5.50;3.00;;;;;;;19.36;60.23;99808.16;4397686;32;20419;-90
2023/06/24 03:42:16;;;;;;;6.68;3.35;;;;;;;19.27;60.23;99819.34;4384990;32;20501;-91
2023/06/24 03:44:42;;;;;;;5.75;2.87;;;;;;;19.22;60.22;99811.75;4397458;32;20427;-91
2023/06/24 03:47:07;;;;;;;7.85;3.78;;;;;;;19.31;60.23;99826.94;4424647;32;20137;-91
2023/06/24 03:49:32;;;;;;;4.30;2.95;;;;;;;19.22;60.22;99830.22;4397334;32;20094;-91
2023/06/24 03:51:58;;;;;;;7.90;2.83;;;;;;;19.13;60.22;99838.72;4397596;32;20128;-91
2023/06/24 03:54:23;;;;;;;3.47;2.42;;;;;;;19.25;60.23;99837.09;4396075;32;20167;-92
2023/06/24 03:56:49;;;;;;;4.40;3.03;;;;;;;19.39;60.24;99839.63;4385558;32;20142;-91
2023/06/24 03:59:14;;;;;;;6.37;2.40;;;;;;;19.28;60.23;99850.91;4397314;32;20109;-89
2023/06/24 04:01:41;;;;;;;5.80;2.20;;;;;;;19.35;60.23;99856.63;4396957;32;20101;-90
2023/06/24 04:04:06;;;;;;;4.05;2.25;;;;;;;19.43;60.23;99859.62;4396703;32;25772;-89
2023/06/24 04:06:32;;;;;;;3.70;2.15;;;;;;;19.18;60.22;99864.84;4397048;32;20124;-92
2023/06/24 04:08:58;;;;;;;7.70;2.45;;;;;;;19.16;60.22;99870.19;4386316;32;26181;-91
2023/06/24 04:11:24;;;;;;;5.62;2.20;;;;;;;19.32;60.24;99868.22;4384691;32;20367;-90
2023/06/24 04:13:49;;;;;;;4.00;1.80;;;;;;;19.43;60.23;99869.34;4396672;32;20120;-90
2023/06/24 04:16:15;;;;;;;4.68;1.60;;;;;;;19.50;60.24;99878.53;4384542;32;20130;-91
2023/06/24 04:18:40;;;;;;;4.43;1.90;;;;;;;19.55;60.24;99874.66;4397162;32;20409;-92
2023/06/24 04:21:09;;;;;;;4.60;1.65;;;;;;;19.65;60.25;99869.63;4397055;32;20138;-91
2023/06/24 04:23:34;;;;;;;4.25;1.70;;;;;;;19.65;60.24;99861.69;4397026;32;20443;-89
2023/06/24 04:26:00;;;;;;;3.65;1.30;;;;;;;19.73;60.25;99866.44;4409272;32;20131;-87
2023/06/24 04:28:25;;;;;;;3.10;1.20;;;;;;;19.68;60.25;99876.50;4413689;32;21647;-88
2023/06/24 04:30:51;;;;;;;3.83;1.30;;;;;;;19.82;60.25;99873.75;4410504;32;20192;-87
2023/06/24 04:33:16;;;;;;;4.22;1.10;;;;;;;19.88;60.26;99874.19;4396486;32;20094;-88
2023/06/24 04:35:43;;;;;;;2.90;0.90;;;;;;;19.75;60.25;99875.12;4384021;32;20403;-88
2023/06/24 04:38:08;;;;;;;3.78;0.90;;;;;;;19.96;60.26;99871.00;4396891;32;20165;-88
2023/06/24 04:40:34;;;;;;;1.12;0.88;;;;;;;20.15;60.27;99875.88;4396862;32;20115;-88
2023/06/24 04:42:59;;;;;;;3.90;0.80;;;;;;;20.16;60.27;99877.56;4396777;32;26017;-88
2023/06/24 04:45:25;;;;;;;1.15;0.62;;;;;;;20.28;60.28;99870.56;4410688;32;20388;-88
2023/06/24 04:47:51;;;;;;;2.97;0.73;;;;;;;20.21;60.28;99871.00;4409145;32;20131;-88
2023/06/24 04:50:17;;;;;;;2.25;0.77;;;;;;;20.22;60.27;99862.13;4398769;32;20100;-89
2023/06/24 04:52:42;;;;;;;1.52;0.70;;;;;;;20.15;60.27;99863.50;4411868;32;20113;-87
2023/06/24 04:55:08;;;;;;;2.35;0.60;;;;;;;20.34;60.28;99864.84;4401604;32;20164;-88
2023/06/24 04:57:38;;;;;;;0.45;0.40;;;;;;;20.43;60.29;99866.88;4411788;32;20139;-89
2023/06/24 05:00:04;;;;;;;0.70;0.50;;;;;;;20.34;60.28;99870.97;4405522;32;20085;-88
2023/06/24 05:02:29;;;;;;;2.12;0.50;;;;;;;20.38;60.28;99864.53;4396935;32;20148;-90
2023/06/24 05:04:55;;;;;;;0.80;0.60;;;;;;;20.38;60.28;99869.81;4384098;32;20463;-89
2023/06/24 05:07:20;;;;;;;2.78;0.60;;;;;;;20.38;60.28;99867.19;4410891;32;20374;-89
2023/06/24 05:09:46;;;;;;;0.52;0.32;;;;;;;20.41;60.29;99871.44;4385067;32;33399;-91
2023/06/24 05:12:12;;;;;;;2.90;0.50;;;;;;;20.48;60.29;99865.59;4398235;32;20081;-91
2023/06/24 05:14:37;;;;;;;3.60;0.43;;;;;;;20.57;60.30;99865.88;4397793;32;28254;-89
2023/06/24 05:17:03;;;;;;;2.20;0.60;;;;;;;20.50;60.29;99879.56;4398270;32;20401;-90
2023/06/24 05:19:29;;;;;;;1.55;0.37;;;;;;;20.67;60.30;99864.28;4398632;32;20086;-90
2023/06/24 05:21:54;;;;;;;0.73;0.35;;;;;;;20.73;60.30;99877.06;4385595;32;20101;-93
2023/06/24 05:24:19;;;;;;;3.53;0.60;;;;;;;20.64;60.30;99867.16;4399906;32;20157;-90
2023/06/24 05:26:48;;;;;;;0.57;0.30;;;;;;;20.73;60.30;99871.78;4398178;32;20145;-92
2023/06/24 05:29:13;;;;;;;2.15;0.50;;;;;;;20.89;60.32;99874.16;4386541;32;20218;-91
2023/06/24 05:31:40;;;;;;;0.65;0.20;;;;;;;20.92;60.31;99876.59;4385343;32;20454;-89
2023/06/24 05:34:07;;;;;;;0.95;0.32;;;;;;;20.98;60.31;99874.31;4410739;32;20149;-88
2023/06/24 05:36:33;;;;;;;1.73;0.45;;;;;;;20.87;60.30;99878.72;4398625;32;20167;-89
2023/06/24 05:38:58;;;;;;;0.62;0.32;;;;;;;20.86;60.30;99888.47;4398165;32;20102;-89
2023/06/24 05:41:23;;;;;;;1.40;0.40;;;;;;;20.75;60.31;99878.63;4399016;32;20141;-88
2023/06/24 05:43:49;;;;;;;0.40;0.30;;;;;;;20.72;60.30;99891.25;4401084;32;20157;-92
2023/06/24 05:46:15;;;;;;;0.60;0.40;;;;;;;20.76;60.30;99901.50;4398086;32;20133;-91
2023/06/24 05:48:42;;;;;;;1.00;0.32;;;;;;;20.82;60.30;99898.44;4398296;32;20085;-90
2023/06/24 05:51:08;;;;;;;0.30;0.30;;;;;;;20.84;60.30;99891.22;4398549;32;20509;-91
2023/06/24 05:53:34;;;;;;;0.47;0.30;;;;;;;20.91;60.31;99902.19;4410703;32;20110;-90
2023/06/24 05:55:59;;;;;;;2.33;0.47;;;;;;;21.03;60.32;99905.75;4424547;32;20137;-90
2023/06/24 05:58:24;;;;;;;0.50;0.30;;;;;;;21.25;60.33;99897.97;4397274;32;28554;-90
2023/06/24 06:00:50;;;;;;;0.75;0.57;;;;;;;21.39;60.34;99904.91;4385470;32;20117;-91
2023/06/24 06:03:16;;;;;;;0.52;0.22;;;;;;;21.56;60.34;99904.50;4387476;32;20148;-91
2023/06/24 06:05:41;;;;;;;1.45;0.40;;;;;;;21.50;60.35;99914.69;4398419;32;20101;-91
2023/06/24 06:08:07;;;;;;;3.85;0.37;;;;;;;21.59;60.35;99914.84;4411843;32;20173;-92
2023/06/24 06:10:32;;;;;;;1.15;0.40;;;;;;;21.71;60.36;99919.22;4387127;32;20138;-91
2023/06/24 06:12:57;;;;;;;3.37;0.50;;;;;;;21.97;60.37;99911.09;4401571;32;20097;-91
2023/06/24 06:15:23;;;;;;;0.70;0.40;;;;;;;21.90;60.37;99907.22;4399585;32;20089;-92
2023/06/24 06:17:48;;;;;;;4.47;0.50;;;;;;;21.92;60.36;99923.84;4409287;32;20062;-91
2023/06/24 06:20:14;;;;;;;1.62;0.47;;;;;;;22.05;60.37;99917.53;4390015;32;20107;-90
2023/06/24 06:22:39;;;;;;;1.02;0.80;;;;;;;22.03;60.37;99927.38;4400678;32;20102;-91
2023/06/24 06:25:05;;;;;;;0.52;0.40;;;;;;;22.18;60.38;99928.03;4385587;32;20113;-92
2023/06/24 06:27:31;;;;;;;1.02;0.40;;;;;;;22.42;60.40;99919.97;4397848;32;20105;-92
2023/06/24 06:29:56;;;;;;;1.05;0.65;;;;;;;22.42;60.40;99935.03;4397935;32;20146;-92
2023/06/24 06:32:22;;;;;;;0.40;0.30;;;;;;;22.40;60.39;99929.00;4398003;32;20106;-91
2023/06/24 06:34:47;;;;;;;0.70;0.30;;;;;;;22.67;60.41;99924.19;4397369;32;20155;-91
2023/06/24 06:37:13;;;;;;;4.25;0.62;;;;;;;22.87;60.41;99928.78;4384774;32;20129;-91
2023/06/24 06:39:38;;;;;;;1.00;0.60;;;;;;;23.00;60.43;99927.81;4397604;32;20081;-91
2023/06/24 06:42:04;;;;;;;0.50;0.50;;;;;;;22.93;60.42;99943.38;4400834;32;20116;-91
2023/06/24 06:44:29;;;;;;;1.70;0.40;;;;;;;22.85;60.42;99927.22;4411278;32;20116;-90
2023/06/24 06:46:54;;;;;;;1.35;0.85;;;;;;;23.03;60.42;99922.25;4397372;32;23317;-90
2023/06/24 06:49:22;;;;;;;2.37;0.60;;;;;;;23.19;60.43;99925.34;4397706;32;20149;-90
2023/06/24 06:51:47;;;;;;;3.10;0.62;;;;;;;23.48;60.45;99920.31;4410809;32;20532;-89
2023/06/24 06:54:13;;;;;;;0.98;0.40;;;;;;;23.65;60.45;99930.38;4397241;32;22615;-89
2023/06/24 06:56:39;;;;;;;0.70;0.62;;;;;;;23.74;60.46;99926.13;4410303;32;20128;-88
2023/06/24 06:59:04;;;;;;;1.00;0.62;;;;;;;23.70;60.46;99935.34;4397774;32;20077;-88
2023/06/24 07:01:30;;;;;;;1.05;0.40;;;;;;;23.69;60.46;99933.66;4409985;32;24964;-87
2023/06/24 07:03:55;;;;;;;5.70;0.70;;;;;;;23.64;60.45;99928.69;4408090;32;20118;-89
2023/06/24 07:06:21;;;;;;;0.60;0.60;;;;;;;23.49;60.44;99922.00;4404188;32;20117;-88
2023/06/24 07:08:46;;;;;;;0.85;0.80;;;;;;;23.52;60.45;99917.25;4397620;32;20394;-89
2023/06/24 07:11:12;;;;;;;1.08;0.50;;;;;;;23.60;60.46;99921.97;4397507;32;20199;-89
2023/06/24 07:13:37;;;;;;;1.25;0.70;;;;;;;23.73;60.46;99908.50;4397772;32;20159;-89
2023/06/24 07:16:03;;;;;;;1.00;0.80;;;;;;;24.01;60.47;99907.84;4410308;32;20135;-88
2023/06/24 07:18:30;;;;;;;1.87;1.10;;;;;;;23.98;60.48;99897.47;4410171;32;20126;-89
2023/06/24 07:20:57;;;;;;;1.50;0.68;;;;;;;24.08;60.48;99903.69;4412596;32;20089;-88
2023/06/24 07:23:22;;;;;;;1.20;0.50;;;;;;;24.47;60.50;99909.22;4410408;32;20179;-88
2023/06/24 07:25:49;;;;;;;5.35;0.65;;;;;;;24.49;60.50;99929.41;4410112;32;20159;-89
2023/06/24 07:28:15;;;;;;;1.80;0.70;;;;;;;24.18;60.48;99922.38;4396919;32;29553;-87
2023/06/24 07:30:40;;;;;;;1.10;0.60;;;;;;;24.20;60.50;99920.41;4397358;32;20422;-89
2023/06/24 07:33:07;;;;;;;0.68;0.65;;;;;;;24.00;60.48;99927.44;4410507;32;20097;-89
2023/06/24 07:35:32;;;;;;;0.60;0.60;;;;;;;24.18;60.48;99928.53;4398079;32;20153;-89
2023/06/24 07:37:58;;;;;;;0.60;0.60;;;;;;;24.30;60.49;99933.78;4397995;32;22453;-90
2023/06/24 07:40:24;;;;;;;2.05;0.62;;;;;;;24.22;60.49;99942.41;4401455;32;20079;-87
2023/06/24 07:42:49;;;;;;;2.40;0.62;;;;;;;24.18;60.48;99949.81;4412200;32;20132;-89
2023/06/24 07:45:15;;;;;;;0.62;0.57;;;;;;;24.41;60.50;99960.31;4420551;32;20102;-89
2023/06/24 07:47:40;;;;;;;1.50;0.68;;;;;;;24.57;60.51;99967.81;4404650;32;20135;-91
2023/06/24 07:50:06;;;;;;;1.90;0.60;;;;;;;24.49;60.50;99956.03;4398788;32;23454;-91
2023/06/24 07:52:31;;;;;;;1.23;0.82;;;;;;;24.58;60.51;99948.19;4424792;32;20344;-92
2023/06/24 07:54:57;;;;;;;0.50;0.45;;;;;;;24.69;60.52;99950.78;4398046;32;20153;-91
2023/06/24 07:57:22;;;;;;;1.17;0.75;;;;;;;24.75;60.51;99947.56;4398686;32;20073;-90
2023/06/24 07:59:47;;;;;;;1.40;0.80;;;;;;;24.85;60.52;99951.12;4398712;32;20176;-90
2023/06/24 08:02:13;;;;;;;1.37;1.00;;;;;;;24.86;60.52;99958.16;4416568;32;20120;-90
2023/06/24 08:04:38;;;;;;;1.12;0.60;;;;;;;24.88;60.52;99942.88;4415379;32;20086;-92
2023/06/24 08:07:04;;;;;;;2.12;1.02;;;;;;;25.04;60.53;99953.00;4398122;32;20106;-90
2023/06/24 08:09:30;;;;;;;0.88;0.70;;;;;;;25.18;60.54;99957.97;4397712;32;20113;-91
2023/06/24 08:11:55;;;;;;;0.75;0.75;;;;;;;25.32;60.55;99952.25;4398360;32;20121;-89
2023/06/24 08:14:20;;;;;;;0.70;0.60;;;;;;;25.50;60.55;99951.53;4399303;32;20117;-89
2023/06/24 08:16:46;;;;;;;1.83;0.70;;;;;;;25.57;60.56;99950.88;4398956;32;20137;-89
2023/06/24 08:19:11;;;;;;;0.65;0.60;;;;;;;25.59;60.56;99962.22;4397204;32;20146;-89
2023/06/24 08:21:37;;;;;;;0.93;0.75;;;;;;;25.52;60.55;99962.91;4396574;32;35319;-89
2023/06/24 08:24:04;;;;;;;2.03;0.82;;;;;;;25.52;60.55;99966.41;4409988;32;20098;-90
2023/06/24 08:26:29;;;;;;;0.55;0.52;;;;;;;25.55;60.56;99965.28;4409980;32;20127;-90
2023/06/24 08:28:55;;;;;;;3.40;1.02;;;;;;;25.55;60.56;99966.16;4396718;32;20129;-89
2023/06/24 08:31:22;;;;;;;0.70;0.50;;;;;;;25.66;60.56;99954.50;4409777;32;20134;-89
2023/06/24 08:33:48;;;;;;;1.30;0.88;;;;;;;25.62;60.57;99955.78;4397530;32;20101;-89
2023/06/24 08:36:13;;;;;;;1.70;0.80;;;;;;;25.72;60.57;99964.63;4398864;32;20097;-91
2023/06/24 08:38:39;;;;;;;0.93;0.73;;;;;;;25.80;60.58;99956.78;4397158;32;20098;-89
2023/06/24 08:41:04;;;;;;;1.58;0.82;;;;;;;25.91;60.57;99971.78;4412019;32;20122;-90
2023/06/24 08:43:29;;;;;;;1.55;0.73;;;;;;;25.85;60.57;99975.03;4386092;32;22376;-90
2023/06/24 08:45:55;;;;;;;1.23;0.90;;;;;;;25.98;60.59;99971.06;4398819;32;20149;-90
2023/06/24 08:48:21;;;;;;;0.70;0.68;;;;;;;25.81;60.58;99957.63;4411404;32;20410;-90
2023/06/24 08:50:48;;;;;;;3.05;0.73;;;;;;;25.66;60.57;99959.84;4398888;32;20452;-88
2023/06/24 08:53:17;;;;;;;1.27;0.75;;;;;;;25.54;60.55;99969.78;4399010;32;20167;-89
2023/06/24 08:55:45;;;;;;;0.50;0.50;;;;;;;25.52;60.56;99970.91;4402427;32;20108;-89
2023/06/24 08:58:10;;;;;;;2.20;0.80;;;;;;;25.51;60.56;99972.72;4386926;32;20180;-89
2023/06/24 09:00:36;;;;;;;1.37;0.70;;;;;;;25.44;60.55;99970.78;4398798;32;20439;-88
2023/06/24 09:03:01;;;;;;;0.90;0.60;;;;;;;25.49;60.56;99965.84;4398062;32;22838;-89
2023/06/24 09:05:27;;;;;;;1.95;0.70;;;;;;;25.37;60.55;99958.00;4398796;32;22354;-90
2023/06/24 09:07:53;;;;;;;9.75;0.80;;;;;;;25.48;60.56;99954.34;4399286;32;20113;-89
2023/06/24 09:10:37;;;;;;;0.95;0.73;;;;;;;25.36;60.55;99960.81;4401590;32;33072;-88
2023/06/24 09:13:03;;;;;;;1.83;0.60;;;;;;;25.27;60.55;99956.28;4398546;32;20101;-89
2023/06/24 09:15:32;;;;;;;2.37;0.60;;;;;;;25.28;60.55;99961.47;4413193;32;20090;-88
2023/06/24 09:17:57;;;;;;;0.70;0.70;;;;;;;25.38;60.54;99956.19;4411222;32;20154;-89
2023/06/24 09:20:23;;;;;;;0.70;0.50;;;;;;;25.51;60.56;99961.22;4398732;32;20161;-88
2023/06/24 09:22:49;;;;;;;2.60;0.60;;;;;;;25.81;60.58;99958.47;4398649;32;20465;-87
2023/06/24 09:25:18;;;;;;;1.17;0.70;;;;;;;25.87;60.58;99965.06;4398474;32;20081;-90
2023/06/24 09:27:52;;;;;;;0.70;0.50;;;;;;;25.91;60.58;99969.97;4398806;32;20152;-89
2023/06/24 09:30:21;;;;;;;0.60;0.50;;;;;;;26.34;60.60;99975.81;4398434;32;20177;-89
2023/06/24 09:32:50;;;;;;;0.97;0.67;;;;;;;26.49;60.61;99956.53;4398256;32;20085;-91
2023/06/24 09:35:21;;;;;;;1.00;0.77;;;;;;;26.79;60.61;99954.59;4400352;32;20109;-92
2023/06/24 09:38:04;;;;;;;0.70;0.60;;;;;;;26.89;60.63;99950.03;4414708;32;20097;-87
2023/06/24 09:40:31;;;;;;;0.90;0.62;;;;;;;26.94;60.63;99950.41;4427276;32;20078;-88
2023/06/24 09:42:58;;;;;;;1.48;0.80;;;;;;;27.21;60.65;99945.09;4413925;32;31132;-89
2023/06/24 09:45:27;;;;;;;4.10;0.80;;;;;;;27.27;60.66;99938.31;4413629;32;20092;-89
2023/06/24 09:47:53;;;;;;;0.68;0.65;;;;;;;26.89;60.63;99942.03;4404208;32;20433;-90
2023/06/24 09:50:19;;;;;;;1.08;0.82;;;;;;;26.91;60.63;99942.72;4409844;32;20106;-92
2023/06/24 09:52:48;;;;;;;1.23;0.75;;;;;;;26.75;60.63;99955.87;4389825;32;20359;-89
2023/06/24 09:55:14;;;;;;;2.12;0.65;;;;;;;26.67;60.62;99948.59;4387001;32;20476;-90
2023/06/24 09:57:45;;;;;;;0.70;0.70;;;;;;;26.69;60.62;99943.09;4411491;32;20454;-91
2023/06/24 10:00:12;;;;;;;1.80;0.68;;;;;;;26.62;60.62;99950.88;4399371;32;20136;-91
2023/06/24 10:02:37;;;;;;;1.02;0.85;;;;;;;26.64;60.63;99938.19;4398908;32;20110;-90
2023/06/24 10:05:03;;;;;;;0.57;0.57;;;;;;;26.66;60.62;99941.56;4400267;32;20192;-92
2023/06/24 10:07:28;;;;;;;2.03;0.80;;;;;;;26.77;60.63;99933.37;4411406;32;20102;-91
2023/06/24 10:09:54;;;;;;;0.60;0.60;;;;;;;26.83;60.63;99930.09;4410840;32;26283;-90
2023/06/24 10:12:20;;;;;;;2.33;0.65;;;;;;;27.00;60.64;99931.19;4398814;32;20170;-90
2023/06/24 10:14:45;;;;;;;1.67;0.70;;;;;;;26.91;60.63;99929.34;4401850;32;20165;-91
2023/06/24 10:17:11;;;;;;;0.70;0.60;;;;;;;26.66;60.62;99928.22;4385004;32;34196;-90
2023/06/24 10:19:40;;;;;;;1.30;0.80;;;;;;;26.51;60.62;99925.22;4385815;32;20109;-91
2023/06/24 10:22:10;;;;;;;1.80;0.87;;;;;;;26.77;60.63;99928.03;4385489;32;20102;-92
2023/06/24 10:24:37;;;;;;;;;;;;;;;26.84;60.63;99922.94;4411363;32;20127;-93
2023/06/24 10:27:07;;;;;;;2.12;0.90;;;;;;;26.73;60.63;99936.47;4398378;32;19985;-93
2023/06/24 10:29:37;;;;;;;1.42;0.82;;;;;;;26.70;60.62;99928.75;4398584;32;20144;-91
2023/06/24 10:32:05;;;;;;;1.30;1.05;;;;;;;26.75;60.63;99922.00;4388899;32;20089;-91
2023/06/24 10:34:37;;;;;;;2.85;0.75;;;;;;;26.64;60.63;99924.84;4399642;32;20137;-91
2023/06/24 10:37:19;;;;;;;1.25;1.00;;;;;;;26.72;60.62;99914.25;4413271;32;20123;-92
2023/06/24 10:39:46;;;;;;;1.60;1.10;;;;;;;26.99;60.64;99915.28;4403669;32;20143;-91
2023/06/24 10:42:23;;;;;;;4.32;0.90;;;;;;;27.02;60.64;99913.16;4398350;32;20106;-89
2023/06/24 10:44:50;;;;;;;0.77;0.50;;;;;;;27.37;60.66;99912.34;4425050;32;20470;-90
2023/06/24 10:47:21;;;;;;;1.15;0.73;;;;;;;27.29;60.66;99924.78;4412299;32;20109;-90
2023/06/24 10:49:46;;;;;;;1.83;0.80;;;;;;;27.06;60.64;99911.03;4410782;32;20265;-89
2023/06/24 10:52:12;;;;;;;2.50;0.73;;;;;;;27.36;60.66;99920.50;4400955;32;20259;-93
2023/06/24 10:54:38;;;;;;;1.20;0.75;;;;;;;27.49;60.66;99923.66;4396992;32;20185;-88
2023/06/24 10:57:11;;;;;;;1.52;0.70;;;;;;;27.39;60.66;99914.84;4385393;32;20153;-93
2023/06/24 10:59:47;;;;;;;2.72;0.98;;;;;;;27.48;60.66;99925.50;4398077;32;20114;-89
2023/06/24 11:02:16;;;;;;;1.20;0.90;;;;;;;27.15;60.65;99935.00;4397395;32;20085;-92
2023/06/24 11:05:08;;;;;;;1.30;1.05;;;;;;;27.15;60.65;99932.31;4397397;32;20137;-90
2023/06/24 11:07:35;;;;;;;1.00;0.90;;;;;;;27.43;60.65;99925.09;4408958;32;20542;-91
2023/06/24 11:10:05;;;;;;;1.20;0.60;;;;;;;27.67;60.68;99923.66;4386139;32;20093;-92
2023/06/24 11:12:34;;;;;;;0.57;0.57;;;;;;;27.88;60.68;99926.00;4414319;32;20427;-92
2023/06/24 11:15:02;;;;;;;3.37;0.95;;;;;;;27.97;60.70;99919.72;4411528;32;20090;-92
2023/06/24 11:17:27;;;;;;;0.60;0.52;;;;;;;28.00;60.69;99922.94;4386074;32;20114;-90
2023/06/24 11:19:53;;;;;;;0.60;0.60;;;;;;;28.31;60.71;99922.47;4411385;32;20130;-92
2023/06/24 11:22:18;;;;;;;1.27;0.60;;;;;;;28.45;60.70;99911.19;4398538;32;20335;-90
2023/06/24 11:24:44;;;;;;;0.85;0.50;;;;;;;28.64;60.72;99915.47;4410384;32;32495;-94
2023/06/24 11:27:09;;;;;;;1.75;0.60;;;;;;;28.60;60.72;99909.56;4411183;32;26096;-96
2023/06/24 11:29:35;;;;;;;1.90;0.70;;;;;;;28.30;60.71;99913.59;4398974;32;20462;-94